sensor_id;sensor_type;location;lat;lon;timestamp;pressure;altitude;pressure_sealevel;temperature;humidity
19594;BME280;9944;48.240;16.478;2023-07-29T00:03:50;99276.41;;;22.42;56.86
19594;BME280;9944;48.240;16.478;2023-07-29T00:07:53;99276.59;;;22.39;56.74
19594;BME280;9944;48.240;16.478;2023-07-29T00:11:57;99268.81;;;22.35;56.35
19594;BME280;9944;48.240;16.478;2023-07-29T00:16:00;99273.25;;;22.36;56.47
19594;BME280;9944;48.240;16.478;2023-07-29T00:20:07;99282.34;;;22.33;57.09
19594;BME280;9944;48.240;16.478;2023-07-29T00:24:11;99284.63;;;22.25;57.17
19594;BME280;9944;48.240;16.478;2023-07-29T00:28:15;99277.72;;;22.21;57.29
19594;BME280;9944;48.240;16.478;2023-07-29T00:32:20;99274.34;;;22.17;57.50
19594;BME280;9944;48.240;16.478;2023-07-29T00:36:25;99271.66;;;22.17;57.81
19594;BME280;9944;48.240;16.478;2023-07-29T00:40:30;99271.84;;;22.14;58.09
19594;BME280;9944;48.240;16.478;2023-07-29T00:44:37;99267.53;;;22.12;58.09
19594;BME280;9944;48.240;16.478;2023-07-29T00:48:40;99266.63;;;22.11;57.73
19594;BME280;9944;48.240;16.478;2023-07-29T00:52:46;99267.53;;;22.12;58.30
19594;BME280;9944;48.240;16.478;2023-07-29T00:56:50;99265.78;;;22.11;57.87
19594;BME280;9944;48.240;16.478;2023-07-29T01:00:54;99267.69;;;22.09;57.98
19594;BME280;9944;48.240;16.478;2023-07-29T01:04:58;99263.25;;;22.08;58.09
19594;BME280;9944;48.240;16.478;2023-07-29T01:09:06;99253.56;;;22.05;58.25
19594;BME280;9944;48.240;16.478;2023-07-29T01:13:18;99256.44;;;22.02;58.54
19594;BME280;9944;48.240;16.478;2023-07-29T01:17:25;99257.50;;;21.99;58.26
19594;BME280;9944;48.240;16.478;2023-07-29T01:21:33;99250.38;;;21.98;58.22
19594;BME280;9944;48.240;16.478;2023-07-29T01:25:39;99263.06;;;21.96;58.28
19594;BME280;9944;48.240;16.478;2023-07-29T01:29:43;99267.59;;;21.96;58.73
19594;BME280;9944;48.240;16.478;2023-07-29T01:33:51;99263.22;;;21.93;58.24
19594;BME280;9944;48.240;16.478;2023-07-29T01:38:01;99259.59;;;21.94;58.95
19594;BME280;9944;48.240;16.478;2023-07-29T01:42:08;99272.06;;;21.95;58.47
19594;BME280;9944;48.240;16.478;2023-07-29T01:46:12;99272.06;;;21.95;58.26
19594;BME280;9944;48.240;16.478;2023-07-29T01:50:16;99271.28;;;21.93;58.81
19594;BME280;9944;48.240;16.478;2023-07-29T01:54:20;99267.75;;;21.93;58.39
19594;BME280;9944;48.240;16.478;2023-07-29T01:58:25;99271.38;;;21.92;58.67
19594;BME280;9944;48.240;16.478;2023-07-29T02:02:29;99263.63;;;21.87;58.92
19594;BME280;9944;48.240;16.478;2023-07-29T02:06:33;99253.81;;;21.86;58.96
19594;BME280;9944;48.240;16.478;2023-07-29T02:10:37;99254.00;;;21.83;58.51
19594;BME280;9944;48.240;16.478;2023-07-29T02:14:43;99247.75;;;21.82;59.27
19594;BME280;9944;48.240;16.478;2023-07-29T02:18:46;99245.91;;;21.83;59.11
19594;BME280;9944;48.240;16.478;2023-07-29T02:22:50;99239.69;;;21.82;58.93
19594;BME280;9944;48.240;16.478;2023-07-29T02:26:54;99245.06;;;21.82;59.08
19594;BME280;9944;48.240;16.478;2023-07-29T02:31:15;99264.72;;;21.83;59.70
19594;BME280;9944;48.240;16.478;2023-07-29T02:35:22;99262.19;;;21.80;58.98
19594;BME280;9944;48.240;16.478;2023-07-29T02:39:26;99260.66;;;21.76;59.52
19594;BME280;9944;48.240;16.478;2023-07-29T02:43:30;99261.72;;;21.73;59.16
19594;BME280;9944;48.240;16.478;2023-07-29T02:47:34;99268.13;;;21.71;58.83
19594;BME280;9944;48.240;16.478;2023-07-29T02:51:38;99271.94;;;21.66;58.62
19594;BME280;9944;48.240;16.478;2023-07-29T02:55:42;99272.28;;;21.60;57.92
19594;BME280;9944;48.240;16.478;2023-07-29T02:59:45;99264.31;;;21.59;57.87
19594;BME280;9944;48.240;16.478;2023-07-29T03:03:50;99277.91;;;21.56;58.06
19594;BME280;9944;48.240;16.478;2023-07-29T03:07:54;99272.81;;;21.51;57.80
19594;BME280;9944;48.240;16.478;2023-07-29T03:11:58;99280.13;;;21.49;57.61
19594;BME280;9944;48.240;16.478;2023-07-29T03:16:05;99273.16;;;21.45;57.37
19594;BME280;9944;48.240;16.478;2023-07-29T03:20:11;99275.06;;;21.43;57.35
19594;BME280;9944;48.240;16.478;2023-07-29T03:24:15;99274.22;;;21.42;56.89
19594;BME280;9944;48.240;16.478;2023-07-29T03:28:18;99275.06;;;21.43;56.92
19594;BME280;9944;48.240;16.478;2023-07-29T03:32:22;99283.91;;;21.45;56.84
19594;BME280;9944;48.240;16.478;2023-07-29T03:36:26;99276.81;;;21.44;57.12
19594;BME280;9944;48.240;16.478;2023-07-29T03:40:30;99282.28;;;21.42;57.36
19594;BME280;9944;48.240;16.478;2023-07-29T03:44:34;99293.19;;;21.39;56.94
19594;BME280;9944;48.240;16.478;2023-07-29T03:48:38;99292.25;;;21.40;57.09
19594;BME280;9944;48.240;16.478;2023-07-29T03:52:43;99291.19;;;21.43;56.95
19594;BME280;9944;48.240;16.478;2023-07-29T03:56:47;99294.84;;;21.42;57.14
19594;BME280;9944;48.240;16.478;2023-07-29T04:00:50;99301.94;;;21.43;56.82
19594;BME280;9944;48.240;16.478;2023-07-29T04:04:54;99306.53;;;21.41;56.90
19594;BME280;9944;48.240;16.478;2023-07-29T04:08:59;99305.75;;;21.39;57.01
19594;BME280;9944;48.240;16.478;2023-07-29T04:13:03;99305.75;;;21.39;57.33
19594;BME280;9944;48.240;16.478;2023-07-29T04:17:07;99311.13;;;21.39;57.01
19594;BME280;9944;48.240;16.478;2023-07-29T04:21:11;99314.75;;;21.38;57.41
19594;BME280;9944;48.240;16.478;2023-07-29T04:25:16;99319.34;;;21.36;57.22
19594;BME280;9944;48.240;16.478;2023-07-29T04:29:20;99319.44;;;21.34;57.10
19594;BME280;9944;48.240;16.478;2023-07-29T04:33:24;99322.19;;;21.33;57.09
19594;BME280;9944;48.240;16.478;2023-07-29T04:37:28;99323.06;;;21.33;57.05
19594;BME280;9944;48.240;16.478;2023-07-29T04:41:33;99333.72;;;21.35;56.72
19594;BME280;9944;48.240;16.478;2023-07-29T04:45:42;99332.78;;;21.36;56.59
19594;BME280;9944;48.240;16.478;2023-07-29T04:49:46;99340.06;;;21.34;56.60
19594;BME280;9944;48.240;16.478;2023-07-29T04:53:50;99336.47;;;21.33;56.43
19594;BME280;9944;48.240;16.478;2023-07-29T04:57:56;99341.97;;;21.31;56.20
19594;BME280;9944;48.240;16.478;2023-07-29T05:01:59;99334.84;;;21.30;56.57
19594;BME280;9944;48.240;16.478;2023-07-29T05:06:03;99351.91;;;21.29;56.47
19594;BME280;9944;48.240;16.478;2023-07-29T05:10:07;99355.47;;;21.30;56.66
19594;BME280;9944;48.240;16.478;2023-07-29T05:14:12;99350.09;;;21.30;57.12
19594;BME280;9944;48.240;16.478;2023-07-29T05:18:17;99349.13;;;21.31;56.94
19594;BME280;9944;48.240;16.478;2023-07-29T05:22:20;99352.50;;;21.35;56.97
19594;BME280;9944;48.240;16.478;2023-07-29T05:26:24;99359.72;;;21.34;57.01
19594;BME280;9944;48.240;16.478;2023-07-29T05:30:29;99359.63;;;21.36;57.36
19594;BME280;9944;48.240;16.478;2023-07-29T05:34:34;99360.25;;;21.41;56.93
19594;BME280;9944;48.240;16.478;2023-07-29T05:38:37;99366.22;;;21.46;57.50
19594;BME280;9944;48.240;16.478;2023-07-29T05:42:41;99356.88;;;21.53;57.03
19594;BME280;9944;48.240;16.478;2023-07-29T05:46:46;99366.38;;;21.59;57.23
19594;BME280;9944;48.240;16.478;2023-07-29T05:50:50;99356.16;;;21.65;56.79
19594;BME280;9944;48.240;16.478;2023-07-29T05:54:53;99351.47;;;21.69;56.89
19594;BME280;9944;48.240;16.478;2023-07-29T05:58:57;99360.31;;;21.71;57.31
19594;BME280;9944;48.240;16.478;2023-07-29T06:03:02;99361.81;;;21.77;57.09
19594;BME280;9944;48.240;16.478;2023-07-29T06:07:07;99361.47;;;21.83;57.09
19594;BME280;9944;48.240;16.478;2023-07-29T06:11:10;99361.13;;;21.89;57.11
19594;BME280;9944;48.240;16.478;2023-07-29T06:15:14;99363.47;;;21.95;56.99
19594;BME280;9944;48.240;16.478;2023-07-29T06:19:20;99363.97;;;22.02;56.94
19594;BME280;9944;48.240;16.478;2023-07-29T06:23:23;99364.81;;;22.02;56.52
19594;BME280;9944;48.240;16.478;2023-07-29T06:27:27;99366.56;;;22.03;56.78
19594;BME280;9944;48.240;16.478;2023-07-29T06:31:30;99367.16;;;22.09;56.73
19594;BME280;9944;48.240;16.478;2023-07-29T06:35:36;99367.78;;;22.14;56.83
19594;BME280;9944;48.240;16.478;2023-07-29T06:39:39;99361.84;;;22.23;56.33
19594;BME280;9944;48.240;16.478;2023-07-29T06:43:43;99361.41;;;22.31;56.11
19594;BME280;9944;48.240;16.478;2023-07-29T06:47:47;99356.53;;;22.37;56.50
19594;BME280;9944;48.240;16.478;2023-07-29T06:51:52;99364.22;;;22.43;56.63
19594;BME280;9944;48.240;16.478;2023-07-29T06:55:55;99366.63;;;22.48;56.47
19594;BME280;9944;48.240;16.478;2023-07-29T06:59:59;99370.44;;;22.60;56.04
19594;BME280;9944;48.240;16.478;2023-07-29T07:04:03;99356.25;;;22.87;56.15
19594;BME280;9944;48.240;16.478;2023-07-29T07:08:08;99356.47;;;23.12;55.49
19594;BME280;9944;48.240;16.478;2023-07-29T07:12:11;99357.50;;;23.24;55.35
19594;BME280;9944;48.240;16.478;2023-07-29T07:16:15;99363.69;;;23.26;55.08
19594;BME280;9944;48.240;16.478;2023-07-29T07:20:19;99353.78;;;23.27;54.72
19594;BME280;9944;48.240;16.478;2023-07-29T07:24:24;99364.72;;;23.24;54.32
19594;BME280;9944;48.240;16.478;2023-07-29T07:28:27;99354.91;;;23.23;53.99
19594;BME280;9944;48.240;16.478;2023-07-29T07:32:30;99355.69;;;23.25;54.45
19594;BME280;9944;48.240;16.478;2023-07-29T07:36:34;99348.53;;;23.24;53.86
19594;BME280;9944;48.240;16.478;2023-07-29T07:40:40;99359.31;;;23.24;54.29
19594;BME280;9944;48.240;16.478;2023-07-29T07:44:43;99362.09;;;23.22;54.21
19594;BME280;9944;48.240;16.478;2023-07-29T07:48:47;99352.41;;;23.19;53.70
19594;BME280;9944;48.240;16.478;2023-07-29T07:52:50;99355.31;;;23.31;54.19
19594;BME280;9944;48.240;16.478;2023-07-29T07:56:55;99340.84;;;23.46;54.38
19594;BME280;9944;48.240;16.478;2023-07-29T08:01:01;99346.94;;;23.77;53.62
19594;BME280;9944;48.240;16.478;2023-07-29T08:05:05;99344.19;;;24.06;53.15
19594;BME280;9944;48.240;16.478;2023-07-29T08:09:10;99329.59;;;24.36;52.78
19594;BME280;9944;48.240;16.478;2023-07-29T08:13:14;99326.03;;;24.61;52.06
19594;BME280;9944;48.240;16.478;2023-07-29T08:17:18;99322.72;;;24.83;51.42
19594;BME280;9944;48.240;16.478;2023-07-29T08:21:22;99332.13;;;25.03;51.17
19594;BME280;9944;48.240;16.478;2023-07-29T08:25:25;99330.78;;;25.21;50.15
19594;BME280;9944;48.240;16.478;2023-07-29T08:29:30;99332.53;;;25.35;49.86
19594;BME280;9944;48.240;16.478;2023-07-29T08:33:34;99321.34;;;25.53;49.42
19594;BME280;9944;48.240;16.478;2023-07-29T08:37:37;99314.06;;;25.66;49.24
19594;BME280;9944;48.240;16.478;2023-07-29T08:41:47;99320.91;;;25.83;48.96
19594;BME280;9944;48.240;16.478;2023-07-29T08:45:53;99312.63;;;25.97;48.35
19594;BME280;9944;48.240;16.478;2023-07-29T08:49:58;99297.84;;;26.14;48.19
19594;BME280;9944;48.240;16.478;2023-07-29T08:54:02;99300.09;;;26.32;48.00
19594;BME280;9944;48.240;16.478;2023-07-29T08:58:06;99303.22;;;26.50;47.98
19594;BME280;9944;48.240;16.478;2023-07-29T09:02:12;99288.38;;;26.67;47.64
19594;BME280;9944;48.240;16.478;2023-07-29T09:06:16;99290.22;;;26.78;47.64
19594;BME280;9944;48.240;16.478;2023-07-29T09:10:21;99290.75;;;26.94;47.31
19594;BME280;9944;48.240;16.478;2023-07-29T09:14:26;99293.44;;;27.05;46.65
19594;BME280;9944;48.240;16.478;2023-07-29T09:18:31;99280.78;;;27.17;46.00
19594;BME280;9944;48.240;16.478;2023-07-29T09:22:35;99272.78;;;27.27;45.80
19594;BME280;9944;48.240;16.478;2023-07-29T09:26:40;99271.88;;;27.38;45.21
19594;BME280;9944;48.240;16.478;2023-07-29T09:30:51;99269.13;;;27.49;45.44
19594;BME280;9944;48.240;16.478;2023-07-29T09:34:56;99285.63;;;27.57;45.07
19594;BME280;9944;48.240;16.478;2023-07-29T09:38:59;99273.34;;;27.53;44.84
19594;BME280;9944;48.240;16.478;2023-07-29T09:43:04;99259.50;;;27.56;44.78
19594;BME280;9944;48.240;16.478;2023-07-29T09:47:08;99268.81;;;27.75;45.07
19594;BME280;9944;48.240;16.478;2023-07-29T09:51:14;99243.13;;;27.90;44.77
19594;BME280;9944;48.240;16.478;2023-07-29T09:55:18;99239.38;;;28.02;43.37
19594;BME280;9944;48.240;16.478;2023-07-29T09:59:23;99249.41;;;28.12;43.42
19594;BME280;9944;48.240;16.478;2023-07-29T10:03:27;99240.50;;;28.21;43.08
19594;BME280;9944;48.240;16.478;2023-07-29T10:07:33;99241.56;;;28.30;42.40
19594;BME280;9944;48.240;16.478;2023-07-29T10:11:37;99219.91;;;28.39;42.66
19594;BME280;9944;48.240;16.478;2023-07-29T10:15:42;99223.72;;;28.58;42.92
19594;BME280;9944;48.240;16.478;2023-07-29T10:19:47;99218.19;;;28.69;42.09
19594;BME280;9944;48.240;16.478;2023-07-29T10:23:55;99219.53;;;28.75;41.68
19594;BME280;9944;48.240;16.478;2023-07-29T10:28:05;99206.97;;;28.84;41.69
19594;BME280;9944;48.240;16.478;2023-07-29T10:32:11;99219.34;;;28.97;41.35
19594;BME280;9944;48.240;16.478;2023-07-29T10:36:15;99221.09;;;29.08;40.86
19594;BME280;9944;48.240;16.478;2023-07-29T10:40:22;99217.84;;;29.24;41.05
19594;BME280;9944;48.240;16.478;2023-07-29T10:44:46;99210.84;;;29.41;41.09
19594;BME280;9944;48.240;16.478;2023-07-29T10:48:55;99214.22;;;29.55;40.51
19594;BME280;9944;48.240;16.478;2023-07-29T10:52:59;99211.03;;;29.59;39.94
19594;BME280;9944;48.240;16.478;2023-07-29T10:57:04;99194.00;;;29.67;39.69
19594;BME280;9944;48.240;16.478;2023-07-29T11:01:13;99198.59;;;29.76;38.82
19594;BME280;9944;48.240;16.478;2023-07-29T11:05:17;99194.72;;;29.88;38.95
19594;BME280;9944;48.240;16.478;2023-07-29T11:09:39;99187.38;;;29.99;38.60
19594;BME280;9944;48.240;16.478;2023-07-29T11:13:44;99172.22;;;30.06;37.39
19594;BME280;9944;48.240;16.478;2023-07-29T11:17:50;99170.47;;;30.15;37.70
19594;BME280;9944;48.240;16.478;2023-07-29T11:21:54;99170.16;;;30.27;37.34
19594;BME280;9944;48.240;16.478;2023-07-29T11:25:58;99165.56;;;30.38;37.00
19594;BME280;9944;48.240;16.478;2023-07-29T11:30:05;99146.00;;;30.52;37.81
19594;BME280;9944;48.240;16.478;2023-07-29T11:34:08;99145.09;;;30.61;37.09
19594;BME280;9944;48.240;16.478;2023-07-29T11:38:15;99151.16;;;30.55;36.39
19594;BME280;9944;48.240;16.478;2023-07-29T11:42:18;99156.91;;;30.42;36.84
19594;BME280;9944;48.240;16.478;2023-07-29T11:46:24;99147.78;;;30.34;35.91
19594;BME280;9944;48.240;16.478;2023-07-29T11:50:28;99147.22;;;30.20;36.16
19594;BME280;9944;48.240;16.478;2023-07-29T11:54:32;99145.25;;;30.22;36.96
19594;BME280;9944;48.240;16.478;2023-07-29T11:58:36;99147.06;;;30.32;36.30
19594;BME280;9944;48.240;16.478;2023-07-29T12:02:42;99127.66;;;30.44;36.41
19594;BME280;9944;48.240;16.478;2023-07-29T12:06:47;99134.91;;;30.63;36.51
19594;BME280;9944;48.240;16.478;2023-07-29T12:10:51;99130.38;;;30.82;36.60
19594;BME280;9944;48.240;16.478;2023-07-29T12:14:55;99116.22;;;30.96;36.18
19594;BME280;9944;48.240;16.478;2023-07-29T12:19:01;99106.78;;;31.09;36.01
19594;BME280;9944;48.240;16.478;2023-07-29T12:23:04;99118.03;;;31.06;35.54
19594;BME280;9944;48.240;16.478;2023-07-29T12:27:11;99119.56;;;31.08;35.74
19594;BME280;9944;48.240;16.478;2023-07-29T12:31:15;99135.03;;;31.17;35.48
19594;BME280;9944;48.240;16.478;2023-07-29T12:35:20;99120.75;;;31.06;35.13
19594;BME280;9944;48.240;16.478;2023-07-29T12:39:25;99126.81;;;30.99;35.59
19594;BME280;9944;48.240;16.478;2023-07-29T12:43:29;99123.38;;;30.97;36.00
19594;BME280;9944;48.240;16.478;2023-07-29T12:47:32;99130.88;;;30.95;36.51
19594;BME280;9944;48.240;16.478;2023-07-29T12:51:37;99118.38;;;30.93;36.69
19594;BME280;9944;48.240;16.478;2023-07-29T12:55:41;99124.38;;;30.78;35.54
19594;BME280;9944;48.240;16.478;2023-07-29T12:59:44;99132.19;;;30.63;35.58
19594;BME280;9944;48.240;16.478;2023-07-29T13:03:48;99119.88;;;30.50;35.98
19594;BME280;9944;48.240;16.478;2023-07-29T13:07:53;99116.81;;;30.35;36.51
19594;BME280;9944;48.240;16.478;2023-07-29T13:11:57;99122.72;;;30.20;36.73
19594;BME280;9944;48.240;16.478;2023-07-29T13:16:01;99115.16;;;30.14;36.90
19594;BME280;9944;48.240;16.478;2023-07-29T13:20:06;99118.44;;;30.18;37.51
19594;BME280;9944;48.240;16.478;2023-07-29T13:24:11;99122.34;;;30.15;37.90
19594;BME280;9944;48.240;16.478;2023-07-29T13:28:16;99117.19;;;30.12;37.77
19594;BME280;9944;48.240;16.478;2023-07-29T13:32:19;99128.91;;;30.03;36.96
19594;BME280;9944;48.240;16.478;2023-07-29T13:36:23;99127.69;;;29.78;37.04
19594;BME280;9944;48.240;16.478;2023-07-29T13:40:28;99140.88;;;29.63;36.11
19594;BME280;9944;48.240;16.478;2023-07-29T13:44:31;99132.47;;;29.56;36.59
19594;BME280;9944;48.240;16.478;2023-07-29T13:48:34;99151.63;;;29.64;36.81
19594;BME280;9944;48.240;16.478;2023-07-29T13:52:38;99138.03;;;29.55;36.04
19594;BME280;9944;48.240;16.478;2023-07-29T13:56:43;99134.56;;;29.33;36.22
19594;BME280;9944;48.240;16.478;2023-07-29T14:00:46;99123.84;;;29.22;36.21
19594;BME280;9944;48.240;16.478;2023-07-29T14:04:50;99137.00;;;29.16;36.85
19594;BME280;9944;48.240;16.478;2023-07-29T14:08:53;99133.56;;;29.14;37.09
19594;BME280;9944;48.240;16.478;2023-07-29T14:12:58;99127.38;;;29.12;36.84
19594;BME280;9944;48.240;16.478;2023-07-29T14:17:02;99137.81;;;29.07;37.19
19594;BME280;9944;48.240;16.478;2023-07-29T14:21:06;99141.81;;;29.03;37.45
19594;BME280;9944;48.240;16.478;2023-07-29T14:25:09;99136.97;;;29.07;37.24
19594;BME280;9944;48.240;16.478;2023-07-29T14:29:14;99138.28;;;29.22;37.86
19594;BME280;9944;48.240;16.478;2023-07-29T14:33:18;99140.44;;;29.28;37.44
19594;BME280;9944;48.240;16.478;2023-07-29T14:37:21;99141.56;;;29.26;37.54
19594;BME280;9944;48.240;16.478;2023-07-29T14:41:25;99143.84;;;29.21;37.60
19594;BME280;9944;48.240;16.478;2023-07-29T14:45:30;99134.53;;;29.13;37.45
19594;BME280;9944;48.240;16.478;2023-07-29T14:49:33;99126.41;;;29.13;37.55
19594;BME280;9944;48.240;16.478;2023-07-29T14:53:36;99130.97;;;29.13;38.24
19594;BME280;9944;48.240;16.478;2023-07-29T14:57:40;99132.38;;;29.07;38.13
19594;BME280;9944;48.240;16.478;2023-07-29T15:01:45;99111.22;;;29.01;38.11
19594;BME280;9944;48.240;16.478;2023-07-29T15:05:49;99121.50;;;28.97;38.77
19594;BME280;9944;48.240;16.478;2023-07-29T15:09:52;99117.19;;;28.95;39.28
19594;BME280;9944;48.240;16.478;2023-07-29T15:13:56;99125.63;;;28.92;39.01
19594;BME280;9944;48.240;16.478;2023-07-29T15:18:01;99123.00;;;28.81;38.87
19594;BME280;9944;48.240;16.478;2023-07-29T15:22:05;99124.13;;;28.68;38.88
19594;BME280;9944;48.240;16.478;2023-07-29T15:26:09;99118.53;;;28.60;38.98
19594;BME280;9944;48.240;16.478;2023-07-29T15:30:12;99125.97;;;28.58;39.16
19594;BME280;9944;48.240;16.478;2023-07-29T15:34:17;99118.34;;;28.52;39.23
19594;BME280;9944;48.240;16.478;2023-07-29T15:38:21;99119.22;;;28.52;38.87
19594;BME280;9944;48.240;16.478;2023-07-29T15:42:24;99104.50;;;28.55;39.49
19594;BME280;9944;48.240;16.478;2023-07-29T15:46:28;99099.06;;;28.55;39.82
19594;BME280;9944;48.240;16.478;2023-07-29T15:50:32;99099.34;;;28.52;39.48
19594;BME280;9944;48.240;16.478;2023-07-29T15:54:36;99097.63;;;28.51;39.65
19594;BME280;9944;48.240;16.478;2023-07-29T15:58:40;99101.59;;;28.47;40.02
19594;BME280;9944;48.240;16.478;2023-07-29T16:02:43;99090.03;;;28.45;40.19
19594;BME280;9944;48.240;16.478;2023-07-29T16:06:48;99093.63;;;28.45;40.39
19594;BME280;9944;48.240;16.478;2023-07-29T16:10:51;99069.00;;;28.47;40.34
19594;BME280;9944;48.240;16.478;2023-07-29T16:14:55;99059.03;;;28.47;40.53
19594;BME280;9944;48.240;16.478;2023-07-29T16:18:58;99055.59;;;28.45;40.34
19594;BME280;9944;48.240;16.478;2023-07-29T16:23:03;99061.31;;;28.42;40.45
19594;BME280;9944;48.240;16.478;2023-07-29T16:27:10;99057.28;;;28.36;40.79
19594;BME280;9944;48.240;16.478;2023-07-29T16:31:13;99087.78;;;28.29;40.88
19594;BME280;9944;48.240;16.478;2023-07-29T16:35:16;99081.06;;;28.23;41.18
19594;BME280;9944;48.240;16.478;2023-07-29T16:39:21;99071.75;;;28.16;41.12
19594;BME280;9944;48.240;16.478;2023-07-29T16:43:24;99076.72;;;28.11;41.71
19594;BME280;9944;48.240;16.478;2023-07-29T16:47:28;99092.81;;;28.02;41.65
19594;BME280;9944;48.240;16.478;2023-07-29T16:51:31;99101.06;;;27.91;41.93
19594;BME280;9944;48.240;16.478;2023-07-29T16:55:36;99098.28;;;27.81;41.99
19594;BME280;9944;48.240;16.478;2023-07-29T16:59:40;99087.81;;;27.77;42.49
19594;BME280;9944;48.240;16.478;2023-07-29T17:03:43;99093.47;;;27.74;42.61
19594;BME280;9944;48.240;16.478;2023-07-29T17:07:46;99106.56;;;27.68;42.77
19594;BME280;9944;48.240;16.478;2023-07-29T17:11:51;99107.63;;;27.56;42.82
19594;BME280;9944;48.240;16.478;2023-07-29T17:15:56;99116.69;;;27.45;42.90
19594;BME280;9944;48.240;16.478;2023-07-29T17:19:59;99123.75;;;27.37;43.26
19594;BME280;9944;48.240;16.478;2023-07-29T17:24:03;99122.56;;;27.29;43.07
19594;BME280;9944;48.240;16.478;2023-07-29T17:28:07;99130.22;;;27.24;43.11
19594;BME280;9944;48.240;16.478;2023-07-29T17:32:12;99136.38;;;27.15;42.50
19594;BME280;9944;48.240;16.478;2023-07-29T17:36:15;99132.59;;;27.06;42.12
19594;BME280;9944;48.240;16.478;2023-07-29T17:40:18;99139.66;;;26.98;41.75
19594;BME280;9944;48.240;16.478;2023-07-29T17:44:23;99138.44;;;26.90;41.71
19594;BME280;9944;48.240;16.478;2023-07-29T17:48:26;99126.75;;;26.79;41.67
19594;BME280;9944;48.240;16.478;2023-07-29T17:52:30;99127.13;;;26.74;41.37
19594;BME280;9944;48.240;16.478;2023-07-29T17:56:34;99130.06;;;26.71;41.24
19594;BME280;9944;48.240;16.478;2023-07-29T18:00:39;99139.81;;;26.62;41.73
19594;BME280;9944;48.240;16.478;2023-07-29T18:04:43;99145.84;;;26.54;41.65
19594;BME280;9944;48.240;16.478;2023-07-29T18:08:48;99146.69;;;26.44;41.32
19594;BME280;9944;48.240;16.478;2023-07-29T18:12:52;99136.59;;;26.34;41.39
19594;BME280;9944;48.240;16.478;2023-07-29T18:16:57;99141.91;;;26.25;41.15
19594;BME280;9944;48.240;16.478;2023-07-29T18:21:00;99148.03;;;26.15;41.35
19594;BME280;9944;48.240;16.478;2023-07-29T18:25:05;99149.00;;;26.03;41.17
19594;BME280;9944;48.240;16.478;2023-07-29T18:29:09;99145.16;;;25.94;41.33
19594;BME280;9944;48.240;16.478;2023-07-29T18:33:14;99147.44;;;25.88;41.22
19594;BME280;9944;48.240;16.478;2023-07-29T18:37:17;99150.16;;;25.76;41.33
19594;BME280;9944;48.240;16.478;2023-07-29T18:41:21;99157.00;;;25.69;41.87
19594;BME280;9944;48.240;16.478;2023-07-29T18:45:25;99158.47;;;25.62;41.87
19594;BME280;9944;48.240;16.478;2023-07-29T18:49:32;99174.41;;;25.54;41.86
19594;BME280;9944;48.240;16.478;2023-07-29T18:53:36;99172.25;;;25.46;41.96
19594;BME280;9944;48.240;16.478;2023-07-29T18:57:40;99180.97;;;25.38;41.84
19594;BME280;9944;48.240;16.478;2023-07-29T19:01:44;99191.03;;;25.36;42.52
19594;BME280;9944;48.240;16.478;2023-07-29T19:05:54;99197.00;;;25.29;42.46
19594;BME280;9944;48.240;16.478;2023-07-29T19:09:58;99196.69;;;25.20;42.66
19594;BME280;9944;48.240;16.478;2023-07-29T19:14:01;99198.09;;;25.13;42.87
19594;BME280;9944;48.240;16.478;2023-07-29T19:18:05;99201.38;;;25.05;43.14
19594;BME280;9944;48.240;16.478;2023-07-29T19:22:10;99208.97;;;25.00;42.88
19594;BME280;9944;48.240;16.478;2023-07-29T19:26:13;99204.75;;;24.96;43.35
19594;BME280;9944;48.240;16.478;2023-07-29T19:30:18;99205.31;;;24.89;43.14
19594;BME280;9944;48.240;16.478;2023-07-29T19:34:22;99212.78;;;24.85;43.35
19594;BME280;9944;48.240;16.478;2023-07-29T19:38:27;99212.44;;;24.77;43.86
19594;BME280;9944;48.240;16.478;2023-07-29T19:42:32;99212.91;;;24.71;44.43
19594;BME280;9944;48.240;16.478;2023-07-29T19:46:35;99200.63;;;24.66;43.97
19594;BME280;9944;48.240;16.478;2023-07-29T19:50:40;99202.75;;;24.61;44.48
19594;BME280;9944;48.240;16.478;2023-07-29T19:54:44;99203.94;;;24.57;44.76
19594;BME280;9944;48.240;16.478;2023-07-29T19:58:49;99199.72;;;24.53;44.95
19594;BME280;9944;48.240;16.478;2023-07-29T20:02:52;99212.69;;;24.48;45.58
19594;BME280;9944;48.240;16.478;2023-07-29T20:06:56;99225.66;;;24.43;45.48
19594;BME280;9944;48.240;16.478;2023-07-29T20:11:01;99215.28;;;24.37;45.79
19594;BME280;9944;48.240;16.478;2023-07-29T20:15:07;99221.13;;;24.30;45.69
19594;BME280;9944;48.240;16.478;2023-07-29T20:19:10;99210.75;;;24.24;46.34
19594;BME280;9944;48.240;16.478;2023-07-29T20:23:14;99208.16;;;24.23;46.23
19594;BME280;9944;48.240;16.478;2023-07-29T20:27:19;99213.66;;;24.21;46.13
19594;BME280;9944;48.240;16.478;2023-07-29T20:31:23;99218.28;;;24.19;46.88
19594;BME280;9944;48.240;16.478;2023-07-29T20:35:27;99213.13;;;24.16;47.07
19594;BME280;9944;48.240;16.478;2023-07-29T20:39:31;99216.78;;;24.15;46.67
19594;BME280;9944;48.240;16.478;2023-07-29T20:43:36;99222.38;;;24.12;47.14
19594;BME280;9944;48.240;16.478;2023-07-29T20:47:44;99220.44;;;24.14;47.03
19594;BME280;9944;48.240;16.478;2023-07-29T20:51:47;99227.78;;;24.12;47.52
19594;BME280;9944;48.240;16.478;2023-07-29T20:55:51;99233.19;;;24.12;47.43
19594;BME280;9944;48.240;16.478;2023-07-29T20:59:56;99236.88;;;24.11;47.29
19594;BME280;9944;48.240;16.478;2023-07-29T21:04:00;99243.97;;;24.12;47.48
19594;BME280;9944;48.240;16.478;2023-07-29T21:08:03;99245.16;;;24.08;47.55
19594;BME280;9944;48.240;16.478;2023-07-29T21:12:07;99246.13;;;24.07;48.07
19594;BME280;9944;48.240;16.478;2023-07-29T21:16:12;99248.25;;;24.02;48.07
19594;BME280;9944;48.240;16.478;2023-07-29T21:20:17;99255.59;;;24.00;47.67
19594;BME280;9944;48.240;16.478;2023-07-29T21:24:20;99252.16;;;23.98;48.06
19594;BME280;9944;48.240;16.478;2023-07-29T21:28:24;99253.09;;;23.97;48.30
19594;BME280;9944;48.240;16.478;2023-07-29T21:32:29;99268.53;;;23.95;47.93
19594;BME280;9944;48.240;16.478;2023-07-29T21:36:33;99263.13;;;23.95;47.96